sensor_id;sensor_type;location;lat;lon;timestamp;P1;durP1;ratioP1;P2;durP2;ratioP2
60318;SDS011;46163;52.306;5.634;2023-09-12T00:01:10;20.98;;;17.45;;
60318;SDS011;46163;52.306;5.634;2023-09-12T00:03:36;23.00;;;18.30;;
60318;SDS011;46163;52.306;5.634;2023-09-12T00:06:02;25.48;;;20.20;;
60318;SDS011;46163;52.306;5.634;2023-09-12T00:08:29;23.77;;;19.73;;
60318;SDS011;46163;52.306;5.634;2023-09-12T00:11:04;23.90;;;18.88;;
60318;SDS011;46163;52.306;5.634;2023-09-12T00:13:36;23.02;;;17.80;;
60318;SDS011;46163;52.306;5.634;2023-09-12T00:16:05;26.85;;;18.73;;
60318;SDS011;46163;52.306;5.634;2023-09-12T00:18:31;27.80;;;18.65;;
60318;SDS011;46163;52.306;5.634;2023-09-12T00:20:59;22.73;;;18.02;;
60318;SDS011;46163;52.306;5.634;2023-09-12T00:23:25;26.95;;;19.65;;
60318;SDS011;46163;52.306;5.634;2023-09-12T00:25:52;22.30;;;17.70;;
60318;SDS011;46163;52.306;5.634;2023-09-12T00:28:17;24.33;;;17.48;;
60318;SDS011;46163;52.306;5.634;2023-09-12T00:30:44;23.98;;;17.63;;
60318;SDS011;46163;52.306;5.634;2023-09-12T00:33:09;21.33;;;16.27;;
60318;SDS011;46163;52.306;5.634;2023-09-12T00:35:35;22.10;;;16.77;;
60318;SDS011;46163;52.306;5.634;2023-09-12T00:38:00;18.63;;;15.90;;
60318;SDS011;46163;52.306;5.634;2023-09-12T00:40:26;23.58;;;16.75;;
60318;SDS011;46163;52.306;5.634;2023-09-12T00:42:51;18.92;;;16.58;;
60318;SDS011;46163;52.306;5.634;2023-09-12T00:45:17;22.77;;;16.80;;
60318;SDS011;46163;52.306;5.634;2023-09-12T00:47:42;24.27;;;17.38;;
60318;SDS011;46163;52.306;5.634;2023-09-12T00:50:08;23.05;;;16.27;;
60318;SDS011;46163;52.306;5.634;2023-09-12T00:52:34;22.23;;;16.58;;
60318;SDS011;46163;52.306;5.634;2023-09-12T00:55:03;19.95;;;16.08;;
60318;SDS011;46163;52.306;5.634;2023-09-12T00:57:30;23.27;;;16.48;;
60318;SDS011;46163;52.306;5.634;2023-09-12T00:59:57;20.98;;;15.98;;
60318;SDS011;46163;52.306;5.634;2023-09-12T01:02:22;24.08;;;15.82;;
60318;SDS011;46163;52.306;5.634;2023-09-12T01:04:49;20.05;;;15.65;;
60318;SDS011;46163;52.306;5.634;2023-09-12T01:07:15;20.48;;;15.88;;
60318;SDS011;46163;52.306;5.634;2023-09-12T01:09:40;20.35;;;17.02;;
60318;SDS011;46163;52.306;5.634;2023-09-12T01:12:06;23.45;;;16.42;;
60318;SDS011;46163;52.306;5.634;2023-09-12T01:14:32;25.10;;;18.13;;
60318;SDS011;46163;52.306;5.634;2023-09-12T01:16:58;21.17;;;17.08;;
60318;SDS011;46163;52.306;5.634;2023-09-12T01:19:24;26.80;;;18.95;;
60318;SDS011;46163;52.306;5.634;2023-09-12T01:22:07;22.02;;;16.52;;
60318;SDS011;46163;52.306;5.634;2023-09-12T01:24:52;20.83;;;17.23;;
60318;SDS011;46163;52.306;5.634;2023-09-12T01:27:34;21.20;;;16.55;;
60318;SDS011;46163;52.306;5.634;2023-09-12T01:30:05;22.52;;;17.85;;
60318;SDS011;46163;52.306;5.634;2023-09-12T01:32:32;21.55;;;17.10;;
60318;SDS011;46163;52.306;5.634;2023-09-12T01:34:59;24.90;;;16.73;;
60318;SDS011;46163;52.306;5.634;2023-09-12T01:37:25;25.17;;;16.90;;
60318;SDS011;46163;52.306;5.634;2023-09-12T01:39:51;23.67;;;18.20;;
60318;SDS011;46163;52.306;5.634;2023-09-12T01:42:17;22.02;;;16.77;;
60318;SDS011;46163;52.306;5.634;2023-09-12T01:44:46;24.73;;;18.38;;
60318;SDS011;46163;52.306;5.634;2023-09-12T01:47:16;23.83;;;18.75;;
60318;SDS011;46163;52.306;5.634;2023-09-12T01:49:44;25.77;;;18.90;;
60318;SDS011;46163;52.306;5.634;2023-09-12T01:52:12;21.33;;;17.90;;
60318;SDS011;46163;52.306;5.634;2023-09-12T01:54:38;24.50;;;18.25;;
60318;SDS011;46163;52.306;5.634;2023-09-12T01:57:05;22.87;;;18.03;;
60318;SDS011;46163;52.306;5.634;2023-09-12T01:59:33;30.20;;;18.85;;
60318;SDS011;46163;52.306;5.634;2023-09-12T02:01:58;25.02;;;19.33;;
60318;SDS011;46163;52.306;5.634;2023-09-12T02:04:24;27.35;;;19.50;;
60318;SDS011;46163;52.306;5.634;2023-09-12T02:06:49;23.08;;;19.08;;
60318;SDS011;46163;52.306;5.634;2023-09-12T02:09:15;22.08;;;17.63;;
60318;SDS011;46163;52.306;5.634;2023-09-12T02:11:40;21.85;;;17.02;;
60318;SDS011;46163;52.306;5.634;2023-09-12T02:14:06;22.27;;;17.25;;
60318;SDS011;46163;52.306;5.634;2023-09-12T02:16:32;21.38;;;18.45;;
60318;SDS011;46163;52.306;5.634;2023-09-12T02:19:02;20.58;;;17.25;;
60318;SDS011;46163;52.306;5.634;2023-09-12T02:21:27;23.30;;;17.17;;
60318;SDS011;46163;52.306;5.634;2023-09-12T02:23:53;19.27;;;15.10;;
60318;SDS011;46163;52.306;5.634;2023-09-12T02:26:18;19.63;;;16.33;;
60318;SDS011;46163;52.306;5.634;2023-09-12T02:28:45;20.60;;;17.30;;
60318;SDS011;46163;52.306;5.634;2023-09-12T02:31:10;22.13;;;15.80;;
60318;SDS011;46163;52.306;5.634;2023-09-12T02:33:37;19.88;;;16.48;;
60318;SDS011;46163;52.306;5.634;2023-09-12T02:36:05;22.17;;;16.85;;
60318;SDS011;46163;52.306;5.634;2023-09-12T02:38:31;19.65;;;15.45;;
60318;SDS011;46163;52.306;5.634;2023-09-12T02:40:57;18.42;;;15.40;;
60318;SDS011;46163;52.306;5.634;2023-09-12T02:43:25;24.80;;;16.52;;
60318;SDS011;46163;52.306;5.634;2023-09-12T02:45:50;20.65;;;16.95;;
60318;SDS011;46163;52.306;5.634;2023-09-12T02:48:16;22.80;;;17.38;;
60318;SDS011;46163;52.306;5.634;2023-09-12T02:50:41;20.23;;;16.88;;
60318;SDS011;46163;52.306;5.634;2023-09-12T02:53:07;22.92;;;17.42;;
60318;SDS011;46163;52.306;5.634;2023-09-12T02:55:32;21.17;;;15.60;;
60318;SDS011;46163;52.306;5.634;2023-09-12T02:57:58;17.52;;;14.68;;
60318;SDS011;46163;52.306;5.634;2023-09-12T03:00:26;18.75;;;14.52;;
60318;SDS011;46163;52.306;5.634;2023-09-12T03:02:51;20.17;;;15.38;;
60318;SDS011;46163;52.306;5.634;2023-09-12T03:05:17;20.35;;;15.73;;
60318;SDS011;46163;52.306;5.634;2023-09-12T03:07:42;23.88;;;17.45;;
60318;SDS011;46163;52.306;5.634;2023-09-12T03:10:07;18.83;;;15.13;;
60318;SDS011;46163;52.306;5.634;2023-09-12T03:12:35;20.58;;;15.95;;
60318;SDS011;46163;52.306;5.634;2023-09-12T03:15:01;20.67;;;16.00;;
60318;SDS011;46163;52.306;5.634;2023-09-12T03:17:28;20.65;;;16.88;;
60318;SDS011;46163;52.306;5.634;2023-09-12T03:19:53;22.60;;;16.65;;
60318;SDS011;46163;52.306;5.634;2023-09-12T03:22:19;23.55;;;18.20;;
60318;SDS011;46163;52.306;5.634;2023-09-12T03:24:44;28.20;;;18.25;;
60318;SDS011;46163;52.306;5.634;2023-09-12T03:27:12;25.98;;;17.75;;
60318;SDS011;46163;52.306;5.634;2023-09-12T03:29:40;20.35;;;17.20;;
60318;SDS011;46163;52.306;5.634;2023-09-12T03:32:05;20.52;;;17.45;;
60318;SDS011;46163;52.306;5.634;2023-09-12T03:34:30;21.92;;;17.33;;
60318;SDS011;46163;52.306;5.634;2023-09-12T03:37:01;22.60;;;18.80;;
60318;SDS011;46163;52.306;5.634;2023-09-12T03:39:26;24.98;;;18.63;;
60318;SDS011;46163;52.306;5.634;2023-09-12T03:41:52;22.73;;;17.13;;
60318;SDS011;46163;52.306;5.634;2023-09-12T03:44:17;22.23;;;18.15;;
60318;SDS011;46163;52.306;5.634;2023-09-12T03:46:42;23.25;;;18.40;;
60318;SDS011;46163;52.306;5.634;2023-09-12T03:49:08;24.17;;;18.35;;
60318;SDS011;46163;52.306;5.634;2023-09-12T03:51:33;30.77;;;20.92;;
60318;SDS011;46163;52.306;5.634;2023-09-12T03:54:00;30.10;;;20.73;;
60318;SDS011;46163;52.306;5.634;2023-09-12T03:56:25;22.73;;;19.67;;
60318;SDS011;46163;52.306;5.634;2023-09-12T03:58:50;21.77;;;18.90;;
60318;SDS011;46163;52.306;5.634;2023-09-12T04:01:16;24.52;;;19.33;;
60318;SDS011;46163;52.306;5.634;2023-09-12T04:03:41;21.70;;;17.48;;
60318;SDS011;46163;52.306;5.634;2023-09-12T04:06:07;24.10;;;17.98;;
60318;SDS011;46163;52.306;5.634;2023-09-12T04:08:32;18.67;;;16.67;;
60318;SDS011;46163;52.306;5.634;2023-09-12T04:10:57;29.45;;;17.70;;
60318;SDS011;46163;52.306;5.634;2023-09-12T04:13:23;22.60;;;18.45;;
60318;SDS011;46163;52.306;5.634;2023-09-12T04:15:48;24.80;;;19.83;;
60318;SDS011;46163;52.306;5.634;2023-09-12T04:18:14;25.20;;;18.75;;
60318;SDS011;46163;52.306;5.634;2023-09-12T04:20:39;24.30;;;18.52;;
60318;SDS011;46163;52.306;5.634;2023-09-12T04:23:05;23.65;;;18.88;;
60318;SDS011;46163;52.306;5.634;2023-09-12T04:25:30;27.00;;;20.55;;
60318;SDS011;46163;52.306;5.634;2023-09-12T04:27:56;25.30;;;20.55;;
60318;SDS011;46163;52.306;5.634;2023-09-12T04:30:22;25.38;;;19.02;;
60318;SDS011;46163;52.306;5.634;2023-09-12T04:32:47;23.55;;;17.98;;
60318;SDS011;46163;52.306;5.634;2023-09-12T04:35:13;20.52;;;16.77;;
60318;SDS011;46163;52.306;5.634;2023-09-12T04:37:38;23.83;;;17.50;;
60318;SDS011;46163;52.306;5.634;2023-09-12T04:40:04;20.10;;;16.83;;
60318;SDS011;46163;52.306;5.634;2023-09-12T04:42:31;22.33;;;16.77;;
60318;SDS011;46163;52.306;5.634;2023-09-12T04:44:59;24.58;;;18.05;;
60318;SDS011;46163;52.306;5.634;2023-09-12T04:47:24;24.08;;;19.67;;
60318;SDS011;46163;52.306;5.634;2023-09-12T04:49:50;24.17;;;18.08;;
60318;SDS011;46163;52.306;5.634;2023-09-12T04:52:15;26.05;;;19.02;;
60318;SDS011;46163;52.306;5.634;2023-09-12T04:54:41;26.63;;;21.52;;
60318;SDS011;46163;52.306;5.634;2023-09-12T04:57:07;27.27;;;20.85;;
60318;SDS011;46163;52.306;5.634;2023-09-12T04:59:33;28.13;;;20.85;;
60318;SDS011;46163;52.306;5.634;2023-09-12T05:01:58;25.98;;;18.92;;
60318;SDS011;46163;52.306;5.634;2023-09-12T05:04:24;24.02;;;18.60;;
60318;SDS011;46163;52.306;5.634;2023-09-12T05:06:51;24.63;;;18.05;;
60318;SDS011;46163;52.306;5.634;2023-09-12T05:09:17;27.95;;;20.15;;
60318;SDS011;46163;52.306;5.634;2023-09-12T05:11:42;29.02;;;21.23;;
60318;SDS011;46163;52.306;5.634;2023-09-12T05:14:09;32.30;;;20.27;;
60318;SDS011;46163;52.306;5.634;2023-09-12T05:16:34;34.10;;;22.80;;
60318;SDS011;46163;52.306;5.634;2023-09-12T05:19:00;28.05;;;21.40;;
60318;SDS011;46163;52.306;5.634;2023-09-12T05:21:25;29.30;;;20.08;;
60318;SDS011;46163;52.306;5.634;2023-09-12T05:23:51;24.40;;;20.15;;
60318;SDS011;46163;52.306;5.634;2023-09-12T05:26:16;26.40;;;19.77;;
60318;SDS011;46163;52.306;5.634;2023-09-12T05:28:42;28.05;;;20.63;;
60318;SDS011;46163;52.306;5.634;2023-09-12T05:31:07;27.15;;;21.30;;
60318;SDS011;46163;52.306;5.634;2023-09-12T05:33:35;30.33;;;23.15;;
60318;SDS011;46163;52.306;5.634;2023-09-12T05:36:00;30.45;;;22.65;;
60318;SDS011;46163;52.306;5.634;2023-09-12T05:38:26;28.50;;;21.30;;
60318;SDS011;46163;52.306;5.634;2023-09-12T05:40:51;28.58;;;22.02;;
60318;SDS011;46163;52.306;5.634;2023-09-12T05:43:18;22.40;;;18.42;;
60318;SDS011;46163;52.306;5.634;2023-09-12T05:45:43;30.45;;;21.35;;
60318;SDS011;46163;52.306;5.634;2023-09-12T05:48:09;30.60;;;21.75;;
60318;SDS011;46163;52.306;5.634;2023-09-12T05:50:35;27.27;;;20.88;;
60318;SDS011;46163;52.306;5.634;2023-09-12T05:53:01;33.88;;;21.67;;
60318;SDS011;46163;52.306;5.634;2023-09-12T05:55:27;26.65;;;20.77;;
60318;SDS011;46163;52.306;5.634;2023-09-12T05:57:53;26.35;;;20.80;;
60318;SDS011;46163;52.306;5.634;2023-09-12T06:00:18;29.88;;;21.50;;
60318;SDS011;46163;52.306;5.634;2023-09-12T06:02:47;28.17;;;21.40;;
60318;SDS011;46163;52.306;5.634;2023-09-12T06:05:13;26.70;;;20.98;;
60318;SDS011;46163;52.306;5.634;2023-09-12T06:07:39;26.63;;;21.42;;
60318;SDS011;46163;52.306;5.634;2023-09-12T06:10:05;30.00;;;21.42;;
60318;SDS011;46163;52.306;5.634;2023-09-12T06:12:34;26.70;;;20.40;;
60318;SDS011;46163;52.306;5.634;2023-09-12T06:15:01;30.25;;;22.13;;
60318;SDS011;46163;52.306;5.634;2023-09-12T06:19:56;26.00;;;20.60;;
60318;SDS011;46163;52.306;5.634;2023-09-12T06:22:22;30.55;;;19.95;;
60318;SDS011;46163;52.306;5.634;2023-09-12T06:24:49;30.65;;;21.13;;
60318;SDS011;46163;52.306;5.634;2023-09-12T06:27:16;24.15;;;19.92;;
60318;SDS011;46163;52.306;5.634;2023-09-12T06:32:10;24.67;;;18.95;;
60318;SDS011;46163;52.306;5.634;2023-09-12T06:34:38;26.90;;;19.70;;
60318;SDS011;46163;52.306;5.634;2023-09-12T06:37:03;30.50;;;19.42;;
60318;SDS011;46163;52.306;5.634;2023-09-12T06:39:29;25.95;;;19.10;;
60318;SDS011;46163;52.306;5.634;2023-09-12T06:41:54;26.02;;;19.58;;
60318;SDS011;46163;52.306;5.634;2023-09-12T06:44:20;25.27;;;19.83;;
60318;SDS011;46163;52.306;5.634;2023-09-12T06:46:45;26.88;;;20.00;;
60318;SDS011;46163;52.306;5.634;2023-09-12T06:49:11;29.17;;;19.85;;
60318;SDS011;46163;52.306;5.634;2023-09-12T06:51:36;22.30;;;18.25;;
60318;SDS011;46163;52.306;5.634;2023-09-12T06:54:02;29.88;;;20.48;;
60318;SDS011;46163;52.306;5.634;2023-09-12T06:56:27;26.23;;;19.02;;
60318;SDS011;46163;52.306;5.634;2023-09-12T06:58:53;24.80;;;19.15;;
60318;SDS011;46163;52.306;5.634;2023-09-12T07:01:20;28.80;;;19.45;;
60318;SDS011;46163;52.306;5.634;2023-09-12T07:03:46;22.15;;;18.02;;
60318;SDS011;46163;52.306;5.634;2023-09-12T07:06:11;25.23;;;18.20;;
60318;SDS011;46163;52.306;5.634;2023-09-12T07:08:37;24.08;;;18.30;;
60318;SDS011;46163;52.306;5.634;2023-09-12T07:11:03;25.55;;;19.15;;
60318;SDS011;46163;52.306;5.634;2023-09-12T07:13:31;22.40;;;18.02;;
60318;SDS011;46163;52.306;5.634;2023-09-12T07:15:57;25.65;;;19.45;;
60318;SDS011;46163;52.306;5.634;2023-09-12T07:18:23;25.48;;;18.70;;
60318;SDS011;46163;52.306;5.634;2023-09-12T07:21:02;21.20;;;17.63;;
60318;SDS011;46163;52.306;5.634;2023-09-12T07:23:28;25.55;;;18.35;;
60318;SDS011;46163;52.306;5.634;2023-09-12T07:25:54;28.23;;;18.58;;
60318;SDS011;46163;52.306;5.634;2023-09-12T07:28:23;26.33;;;18.58;;
60318;SDS011;46163;52.306;5.634;2023-09-12T07:30:49;22.08;;;17.23;;
60318;SDS011;46163;52.306;5.634;2023-09-12T07:33:15;25.80;;;17.73;;
60318;SDS011;46163;52.306;5.634;2023-09-12T07:35:41;23.10;;;17.75;;
60318;SDS011;46163;52.306;5.634;2023-09-12T07:38:06;26.77;;;19.10;;
60318;SDS011;46163;52.306;5.634;2023-09-12T07:40:32;23.02;;;17.67;;
60318;SDS011;46163;52.306;5.634;2023-09-12T07:42:59;22.08;;;17.00;;
60318;SDS011;46163;52.306;5.634;2023-09-12T07:45:25;19.98;;;16.05;;
60318;SDS011;46163;52.306;5.634;2023-09-12T07:47:50;18.52;;;16.02;;
60318;SDS011;46163;52.306;5.634;2023-09-12T07:50:16;20.55;;;16.48;;
60318;SDS011;46163;52.306;5.634;2023-09-12T07:52:42;27.48;;;16.95;;
60318;SDS011;46163;52.306;5.634;2023-09-12T07:55:09;23.33;;;16.85;;
60318;SDS011;46163;52.306;5.634;2023-09-12T07:57:35;23.58;;;16.70;;
60318;SDS011;46163;52.306;5.634;2023-09-12T08:00:02;19.95;;;15.02;;
60318;SDS011;46163;52.306;5.634;2023-09-12T08:02:30;22.35;;;15.00;;
60318;SDS011;46163;52.306;5.634;2023-09-12T08:04:55;20.88;;;14.95;;
60318;SDS011;46163;52.306;5.634;2023-09-12T08:07:21;18.95;;;13.63;;
60318;SDS011;46163;52.306;5.634;2023-09-12T08:12:22;15.63;;;12.52;;
60318;SDS011;46163;52.306;5.634;2023-09-12T08:14:51;16.75;;;12.23;;
60318;SDS011;46163;52.306;5.634;2023-09-12T08:17:17;15.90;;;12.38;;
60318;SDS011;46163;52.306;5.634;2023-09-12T08:19:42;13.82;;;12.05;;
60318;SDS011;46163;52.306;5.634;2023-09-12T08:22:11;14.23;;;11.75;;
60318;SDS011;46163;52.306;5.634;2023-09-12T08:24:37;17.38;;;11.63;;
60318;SDS011;46163;52.306;5.634;2023-09-12T08:27:04;15.43;;;11.57;;
60318;SDS011;46163;52.306;5.634;2023-09-12T08:29:31;16.60;;;11.48;;
60318;SDS011;46163;52.306;5.634;2023-09-12T08:31:57;15.60;;;12.13;;
60318;SDS011;46163;52.306;5.634;2023-09-12T08:34:23;15.57;;;12.50;;
60318;SDS011;46163;52.306;5.634;2023-09-12T08:36:48;13.10;;;11.65;;
60318;SDS011;46163;52.306;5.634;2023-09-12T08:39:14;14.05;;;12.15;;
60318;SDS011;46163;52.306;5.634;2023-09-12T08:41:45;19.00;;;12.02;;
60318;SDS011;46163;52.306;5.634;2023-09-12T08:44:11;15.10;;;11.88;;
60318;SDS011;46163;52.306;5.634;2023-09-12T08:46:42;13.68;;;11.48;;
60318;SDS011;46163;52.306;5.634;2023-09-12T08:49:09;13.30;;;10.60;;
60318;SDS011;46163;52.306;5.634;2023-09-12T08:51:38;13.10;;;9.65;;
60318;SDS011;46163;52.306;5.634;2023-09-12T08:54:05;11.55;;;9.60;;
60318;SDS011;46163;52.306;5.634;2023-09-12T08:56:31;12.18;;;9.73;;
60318;SDS011;46163;52.306;5.634;2023-09-12T08:59:00;11.70;;;10.00;;
60318;SDS011;46163;52.306;5.634;2023-09-12T09:01:26;13.38;;;10.15;;
60318;SDS011;46163;52.306;5.634;2023-09-12T09:03:55;13.57;;;10.38;;
60318;SDS011;46163;52.306;5.634;2023-09-12T09:06:23;14.70;;;10.20;;
60318;SDS011;46163;52.306;5.634;2023-09-12T09:08:50;13.82;;;10.77;;
60318;SDS011;46163;52.306;5.634;2023-09-12T09:11:16;12.63;;;10.52;;
60318;SDS011;46163;52.306;5.634;2023-09-12T09:13:42;12.15;;;10.88;;
60318;SDS011;46163;52.306;5.634;2023-09-12T09:16:14;15.10;;;10.50;;
60318;SDS011;46163;52.306;5.634;2023-09-12T09:18:50;13.45;;;10.70;;
60318;SDS011;46163;52.306;5.634;2023-09-12T09:21:29;11.40;;;9.85;;
60318;SDS011;46163;52.306;5.634;2023-09-12T09:23:57;11.55;;;10.38;;
60318;SDS011;46163;52.306;5.634;2023-09-12T09:29:17;14.25;;;11.55;;
60318;SDS011;46163;52.306;5.634;2023-09-12T09:31:44;11.82;;;10.60;;
60318;SDS011;46163;52.306;5.634;2023-09-12T09:34:12;12.02;;;10.20;;
60318;SDS011;46163;52.306;5.634;2023-09-12T09:36:42;12.75;;;10.68;;
60318;SDS011;46163;52.306;5.634;2023-09-12T09:39:19;15.90;;;12.35;;
60318;SDS011;46163;52.306;5.634;2023-09-12T09:41:56;12.00;;;10.73;;
60318;SDS011;46163;52.306;5.634;2023-09-12T09:44:23;12.40;;;10.65;;
60318;SDS011;46163;52.306;5.634;2023-09-12T09:47:00;14.07;;;12.13;;
60318;SDS011;46163;52.306;5.634;2023-09-12T09:49:27;13.38;;;11.52;;
60318;SDS011;46163;52.306;5.634;2023-09-12T09:51:55;12.48;;;10.65;;
60318;SDS011;46163;52.306;5.634;2023-09-12T09:56:50;13.35;;;11.85;;
60318;SDS011;46163;52.306;5.634;2023-09-12T09:59:19;17.98;;;12.45;;
60318;SDS011;46163;52.306;5.634;2023-09-12T10:01:48;14.73;;;12.45;;
60318;SDS011;46163;52.306;5.634;2023-09-12T10:04:15;17.00;;;11.45;;
60318;SDS011;46163;52.306;5.634;2023-09-12T10:06:45;13.93;;;10.48;;
60318;SDS011;46163;52.306;5.634;2023-09-12T10:09:17;14.13;;;11.50;;
60318;SDS011;46163;52.306;5.634;2023-09-12T10:11:48;19.13;;;11.85;;
60318;SDS011;46163;52.306;5.634;2023-09-12T10:14:17;12.05;;;10.48;;
60318;SDS011;46163;52.306;5.634;2023-09-12T10:16:46;17.50;;;11.77;;
60318;SDS011;46163;52.306;5.634;2023-09-12T10:19:17;12.77;;;10.93;;
60318;SDS011;46163;52.306;5.634;2023-09-12T10:21:46;15.18;;;12.88;;
60318;SDS011;46163;52.306;5.634;2023-09-12T10:24:12;15.38;;;11.85;;
60318;SDS011;46163;52.306;5.634;2023-09-12T10:29:10;15.57;;;11.02;;
60318;SDS011;46163;52.306;5.634;2023-09-12T10:31:38;15.65;;;11.93;;
60318;SDS011;46163;52.306;5.634;2023-09-12T10:34:04;16.25;;;11.80;;
60318;SDS011;46163;52.306;5.634;2023-09-12T10:36:34;12.05;;;10.43;;
60318;SDS011;46163;52.306;5.634;2023-09-12T10:39:04;17.13;;;11.55;;
60318;SDS011;46163;52.306;5.634;2023-09-12T10:41:30;15.48;;;10.70;;
60318;SDS011;46163;52.306;5.634;2023-09-12T10:43:57;14.67;;;12.27;;
60318;SDS011;46163;52.306;5.634;2023-09-12T10:46:23;17.35;;;11.52;;
60318;SDS011;46163;52.306;5.634;2023-09-12T10:48:49;11.98;;;9.95;;
60318;SDS011;46163;52.306;5.634;2023-09-12T10:51:15;13.63;;;9.55;;
60318;SDS011;46163;52.306;5.634;2023-09-12T10:53:49;13.38;;;10.15;;
60318;SDS011;46163;52.306;5.634;2023-09-12T10:56:16;17.30;;;11.07;;
60318;SDS011;46163;52.306;5.634;2023-09-12T11:01:40;13.27;;;9.95;;
60318;SDS011;46163;52.306;5.634;2023-09-12T11:06:46;13.88;;;10.38;;
60318;SDS011;46163;52.306;5.634;2023-09-12T11:09:24;11.00;;;9.68;;
60318;SDS011;46163;52.306;5.634;2023-09-12T11:14:22;15.50;;;10.63;;
60318;SDS011;46163;52.306;5.634;2023-09-12T11:19:51;10.57;;;8.57;;
60318;SDS011;46163;52.306;5.634;2023-09-12T11:24:49;7.93;;;6.03;;
60318;SDS011;46163;52.306;5.634;2023-09-12T11:27:14;8.40;;;6.60;;
60318;SDS011;46163;52.306;5.634;2023-09-12T11:29:40;9.45;;;5.25;;
60318;SDS011;46163;52.306;5.634;2023-09-12T11:32:06;9.57;;;5.60;;
60318;SDS011;46163;52.306;5.634;2023-09-12T11:34:36;8.55;;;5.85;;
60318;SDS011;46163;52.306;5.634;2023-09-12T11:37:04;6.80;;;5.07;;
60318;SDS011;46163;52.306;5.634;2023-09-12T11:39:31;7.50;;;5.07;;
60318;SDS011;46163;52.306;5.634;2023-09-12T11:42:00;9.07;;;5.07;;
60318;SDS011;46163;52.306;5.634;2023-09-12T11:44:27;7.80;;;4.60;;
60318;SDS011;46163;52.306;5.634;2023-09-12T11:46:55;5.55;;;4.25;;
60318;SDS011;46163;52.306;5.634;2023-09-12T11:49:28;6.80;;;4.93;;
60318;SDS011;46163;52.306;5.634;2023-09-12T11:52:00;5.43;;;4.20;;
60318;SDS011;46163;52.306;5.634;2023-09-12T11:54:25;5.78;;;4.53;;
60318;SDS011;46163;52.306;5.634;2023-09-12T11:56:51;5.05;;;3.83;;
60318;SDS011;46163;52.306;5.634;2023-09-12T11:59:26;4.60;;;3.75;;
60318;SDS011;46163;52.306;5.634;2023-09-12T12:01:52;7.63;;;4.30;;
60318;SDS011;46163;52.306;5.634;2023-09-12T12:04:20;7.03;;;4.63;;
60318;SDS011;46163;52.306;5.634;2023-09-12T12:06:47;4.25;;;3.80;;
60318;SDS011;46163;52.306;5.634;2023-09-12T12:09:13;9.27;;;4.88;;
60318;SDS011;46163;52.306;5.634;2023-09-12T12:11:43;7.93;;;4.45;;
60318;SDS011;46163;52.306;5.634;2023-09-12T12:16:35;5.23;;;3.87;;
60318;SDS011;46163;52.306;5.634;2023-09-12T12:19:03;7.47;;;5.00;;
60318;SDS011;46163;52.306;5.634;2023-09-12T12:21:28;5.25;;;4.45;;
60318;SDS011;46163;52.306;5.634;2023-09-12T12:23:58;6.97;;;5.65;;
60318;SDS011;46163;52.306;5.634;2023-09-12T12:26:24;6.68;;;4.95;;
60318;SDS011;46163;52.306;5.634;2023-09-12T12:28:51;6.68;;;5.10;;
60318;SDS011;46163;52.306;5.634;2023-09-12T12:31:16;14.38;;;5.28;;
60318;SDS011;46163;52.306;5.634;2023-09-12T12:33:47;7.20;;;5.50;;
60318;SDS011;46163;52.306;5.634;2023-09-12T12:36:18;6.18;;;4.82;;
60318;SDS011;46163;52.306;5.634;2023-09-12T12:38:43;8.48;;;4.45;;
60318;SDS011;46163;52.306;5.634;2023-09-12T12:41:13;5.93;;;4.28;;
60318;SDS011;46163;52.306;5.634;2023-09-12T12:43:41;4.75;;;4.18;;
60318;SDS011;46163;52.306;5.634;2023-09-12T12:46:09;6.13;;;3.28;;
60318;SDS011;46163;52.306;5.634;2023-09-12T12:48:37;5.22;;;3.53;;
60318;SDS011;46163;52.306;5.634;2023-09-12T12:53:54;6.72;;;3.80;;
60318;SDS011;46163;52.306;5.634;2023-09-12T12:56:30;5.32;;;3.40;;
60318;SDS011;46163;52.306;5.634;2023-09-12T12:58:59;9.13;;;3.10;;
60318;SDS011;46163;52.306;5.634;2023-09-12T13:01:29;4.00;;;3.45;;
60318;SDS011;46163;52.306;5.634;2023-09-12T13:03:54;5.00;;;3.95;;
60318;SDS011;46163;52.306;5.634;2023-09-12T13:06:21;4.77;;;3.43;;
60318;SDS011;46163;52.306;5.634;2023-09-12T13:08:48;4.18;;;3.45;;
60318;SDS011;46163;52.306;5.634;2023-09-12T13:11:15;3.20;;;2.90;;
60318;SDS011;46163;52.306;5.634;2023-09-12T13:13:41;6.20;;;3.92;;
60318;SDS011;46163;52.306;5.634;2023-09-12T13:16:13;7.15;;;3.33;;
60318;SDS011;46163;52.306;5.634;2023-09-12T13:18:39;4.10;;;3.15;;
60318;SDS011;46163;52.306;5.634;2023-09-12T13:21:05;9.00;;;4.80;;
60318;SDS011;46163;52.306;5.634;2023-09-12T13:23:38;7.97;;;4.10;;
60318;SDS011;46163;52.306;5.634;2023-09-12T13:26:04;6.43;;;4.70;;
60318;SDS011;46163;52.306;5.634;2023-09-12T13:28:31;7.22;;;4.00;;
60318;SDS011;46163;52.306;5.634;2023-09-12T13:30:57;5.80;;;4.28;;
60318;SDS011;46163;52.306;5.634;2023-09-12T13:33:22;6.45;;;4.20;;
60318;SDS011;46163;52.306;5.634;2023-09-12T13:35:48;6.18;;;4.22;;
60318;SDS011;46163;52.306;5.634;2023-09-12T13:38:17;8.05;;;4.32;;
60318;SDS011;46163;52.306;5.634;2023-09-12T13:40:45;6.05;;;4.03;;
60318;SDS011;46163;52.306;5.634;2023-09-12T13:43:11;6.07;;;4.28;;
60318;SDS011;46163;52.306;5.634;2023-09-12T13:45:37;4.97;;;4.15;;
60318;SDS011;46163;52.306;5.634;2023-09-12T13:48:03;7.60;;;4.68;;
60318;SDS011;46163;52.306;5.634;2023-09-12T13:50:30;5.60;;;4.35;;
60318;SDS011;46163;52.306;5.634;2023-09-12T13:52:58;6.15;;;5.15;;
60318;SDS011;46163;52.306;5.634;2023-09-12T13:55:25;5.53;;;4.80;;
60318;SDS011;46163;52.306;5.634;2023-09-12T13:57:51;12.68;;;7.07;;
60318;SDS011;46163;52.306;5.634;2023-09-12T14:00:16;10.48;;;6.30;;
60318;SDS011;46163;52.306;5.634;2023-09-12T14:02:42;14.60;;;8.23;;
60318;SDS011;46163;52.306;5.634;2023-09-12T14:05:09;13.43;;;8.67;;
60318;SDS011;46163;52.306;5.634;2023-09-12T14:07:35;17.20;;;9.90;;
60318;SDS011;46163;52.306;5.634;2023-09-12T14:10:02;26.90;;;10.63;;
60318;SDS011;46163;52.306;5.634;2023-09-12T14:12:27;13.93;;;9.50;;
60318;SDS011;46163;52.306;5.634;2023-09-12T14:14:53;12.90;;;9.68;;
60318;SDS011;46163;52.306;5.634;2023-09-12T14:17:18;12.85;;;9.45;;
60318;SDS011;46163;52.306;5.634;2023-09-12T14:19:44;11.07;;;8.77;;
60318;SDS011;46163;52.306;5.634;2023-09-12T14:22:09;13.75;;;9.75;;
60318;SDS011;46163;52.306;5.634;2023-09-12T14:24:35;13.88;;;10.05;;
60318;SDS011;46163;52.306;5.634;2023-09-12T14:27:00;12.82;;;9.30;;
60318;SDS011;46163;52.306;5.634;2023-09-12T14:29:25;15.57;;;9.75;;
60318;SDS011;46163;52.306;5.634;2023-09-12T14:31:54;17.50;;;9.55;;
60318;SDS011;46163;52.306;5.634;2023-09-12T14:34:26;12.50;;;8.32;;
60318;SDS011;46163;52.306;5.634;2023-09-12T14:36:56;10.45;;;7.25;;
60318;SDS011;46163;52.306;5.634;2023-09-12T14:39:22;8.80;;;6.82;;
60318;SDS011;46163;52.306;5.634;2023-09-12T14:41:48;10.77;;;8.05;;
60318;SDS011;46163;52.306;5.634;2023-09-12T14:44:22;10.07;;;7.72;;
60318;SDS011;46163;52.306;5.634;2023-09-12T14:46:48;12.80;;;9.25;;
60318;SDS011;46163;52.306;5.634;2023-09-12T14:49:14;17.00;;;10.40;;
60318;SDS011;46163;52.306;5.634;2023-09-12T14:51:40;10.45;;;9.23;;
60318;SDS011;46163;52.306;5.634;2023-09-12T14:54:08;16.38;;;12.25;;
60318;SDS011;46163;52.306;5.634;2023-09-12T14:56:37;15.70;;;12.88;;
60318;SDS011;46163;52.306;5.634;2023-09-12T14:59:03;17.48;;;13.38;;